createdAt,value
2023-02-19T00:02:05.884Z,98438.31
2023-02-19T00:04:34.543Z,98449.16
2023-02-19T00:07:04.422Z,98461.19
2023-02-19T00:09:32.936Z,98448.91
2023-02-19T00:12:01.478Z,98445.56
2023-02-19T00:14:30.373Z,98454.19
2023-02-19T00:16:59.004Z,98478.72
2023-02-19T00:19:27.586Z,98444.19
2023-02-19T00:21:56.431Z,98469.84
2023-02-19T00:24:26.437Z,98468.13
2023-02-19T00:26:54.911Z,98467.44
2023-02-19T00:29:25.249Z,98480.66
2023-02-19T00:31:53.939Z,98480.66
2023-02-19T00:34:22.531Z,98475.53
2023-02-19T00:36:50.998Z,98489.72
2023-02-19T00:39:21.634Z,98482.75
2023-02-19T00:41:51.766Z,98474.94
2023-02-19T00:44:20.393Z,98483.72
2023-02-19T00:46:50.345Z,98487.22
2023-02-19T00:49:21.637Z,98484.69
2023-02-19T00:51:51.702Z,98481.31
2023-02-19T00:54:23.787Z,98498.06
2023-02-19T00:56:53.838Z,98493.00
2023-02-19T00:59:22.403Z,98496.66
2023-02-19T01:01:51.088Z,98503.75
2023-02-19T01:04:19.868Z,98497.59
2023-02-19T01:06:49.169Z,98506.25
2023-02-19T01:09:17.712Z,98506.53
2023-02-19T01:11:46.642Z,98513.63
2023-02-19T01:14:16.903Z,98513.75
2023-02-19T01:16:45.672Z,98515.56
2023-02-19T01:19:14.287Z,98509.69
2023-02-19T01:21:43.064Z,98511.47
2023-02-19T01:24:12.414Z,98512.47
2023-02-19T01:26:41.873Z,98528.47
2023-02-19T01:29:10.545Z,98520.41
2023-02-19T01:31:42.454Z,98527.50
2023-02-19T01:34:13.177Z,98511.47
2023-02-19T01:36:42.665Z,98522.06
2023-02-19T01:39:12.753Z,98518.59
2023-02-19T01:41:43.380Z,98526.41
2023-02-19T01:44:44.946Z,98525.56
2023-02-19T01:47:19.096Z,98527.38
2023-02-19T01:49:52.245Z,98526.53
2023-02-19T01:52:26.217Z,98533.53
2023-02-19T01:54:56.390Z,98528.22
2023-02-19T01:57:28.029Z,98539.88
2023-02-19T02:00:00.199Z,98533.63
2023-02-19T02:02:31.839Z,98538.34
2023-02-19T02:05:01.693Z,98534.00
2023-02-19T02:07:47.719Z,98536.78
2023-02-19T02:10:22.259Z,98544.88
2023-02-19T02:12:52.032Z,98536.22
2023-02-19T02:15:22.476Z,98543.31
2023-02-19T02:17:58.287Z,98539.13
2023-02-19T02:20:38.327Z,98548.72
2023-02-19T02:23:17.919Z,98544.66
2023-02-19T02:26:11.542Z,98555.22
2023-02-19T02:29:05.932Z,98560.53
2023-02-19T02:31:43.422Z,98571.25
2023-02-19T02:34:16.588Z,98562.47
2023-02-19T02:36:48.671Z,98573.91
2023-02-19T02:39:21.464Z,98579.44
2023-02-19T02:42:14.398Z,98568.25
2023-02-19T02:45:07.923Z,98574.53
2023-02-19T02:47:46.419Z,98570.91
2023-02-19T02:50:20.160Z,98580.53
2023-02-19T02:53:09.650Z,98577.28
2023-02-19T02:55:43.002Z,98577.19
2023-02-19T02:58:14.068Z,98584.97
2023-02-19T03:01:03.739Z,98578.84
2023-02-19T03:03:36.469Z,98585.94
2023-02-19T03:06:08.194Z,98583.41
2023-02-19T03:08:41.043Z,98581.75
2023-02-19T03:11:30.433Z,98576.72
2023-02-19T03:14:25.022Z,98570.44
2023-02-19T03:17:19.448Z,98577.81
2023-02-19T03:19:52.469Z,98591.97
2023-02-19T03:22:26.027Z,98588.50
2023-02-19T03:25:15.416Z,98593.78
2023-02-19T03:27:48.031Z,98592.13
2023-02-19T03:30:21.152Z,98590.31
2023-02-19T03:32:53.527Z,98593.91
2023-02-19T03:35:27.689Z,98586.69
2023-02-19T03:38:03.926Z,98595.47
2023-02-19T03:40:40.481Z,98595.47
2023-02-19T03:43:19.734Z,98591.16
2023-02-19T03:45:58.786Z,98602.44
2023-02-19T03:48:34.951Z,98601.63
2023-02-19T03:51:32.562Z,98601.47
2023-02-19T03:54:11.476Z,98609.56
2023-02-19T03:56:47.182Z,98610.50
2023-02-19T03:59:20.668Z,98603.53
2023-02-19T04:01:52.865Z,98624.81
2023-02-19T04:04:27.337Z,98622.16
2023-02-19T04:06:59.085Z,98622.16
2023-02-19T04:09:37.532Z,98622.31
2023-02-19T04:12:14.298Z,98618.22
2023-02-19T04:14:50.671Z,98612.22
2023-02-19T04:17:28.130Z,98628.91
2023-02-19T04:20:00.936Z,98638.09
2023-02-19T04:22:31.945Z,98638.31
2023-02-19T04:25:01.121Z,98640.25
2023-02-19T04:27:37.162Z,98633.41
2023-02-19T04:30:07.490Z,98637.72
2023-02-19T04:32:38.607Z,98640.47
2023-02-19T04:35:10.962Z,98643.84
2023-02-19T04:37:41.162Z,98652.63
2023-02-19T04:40:11.382Z,98647.22
2023-02-19T04:42:40.245Z,98647.09
2023-02-19T04:45:09.869Z,98656.59
2023-02-19T04:47:38.533Z,98652.97
2023-02-19T04:50:08.084Z,98657.44
2023-02-19T04:52:40.013Z,98658.38
2023-02-19T04:55:11.105Z,98663.66
2023-02-19T04:57:39.881Z,98652.00
2023-02-19T05:00:10.684Z,98653.69
2023-02-19T05:02:44.608Z,98643.69
2023-02-19T05:05:13.464Z,98651.78
2023-02-19T05:07:42.086Z,98647.91
2023-02-19T05:10:12.467Z,98667.38
2023-02-19T05:12:41.233Z,98653.44
2023-02-19T05:15:10.211Z,98641.41
2023-02-19T05:17:38.937Z,98654.66
2023-02-19T05:20:08.754Z,98660.91
2023-02-19T05:22:40.276Z,98653.59
2023-02-19T05:25:09.373Z,98662.97
2023-02-19T05:27:39.487Z,98653.34
2023-02-19T05:30:09.244Z,98655.03
2023-02-19T05:32:40.068Z,98654.56
2023-02-19T05:35:09.012Z,98655.41
2023-02-19T05:37:37.528Z,98658.88
2023-02-19T05:40:09.291Z,98652.50
2023-02-19T05:42:39.556Z,98673.66
2023-02-19T05:45:09.411Z,98672.94
2023-02-19T05:47:38.178Z,98677.38
2023-02-19T05:50:09.784Z,98674.84
2023-02-19T05:52:38.664Z,98667.06
2023-02-19T05:55:07.985Z,98681.94
2023-02-19T05:57:43.971Z,98684.75
2023-02-19T06:00:17.803Z,98679.44
2023-02-19T06:02:48.298Z,98683.41
2023-02-19T06:05:17.241Z,98699.41
2023-02-19T06:07:50.676Z,98682.91
2023-02-19T06:10:20.259Z,98695.41
2023-02-19T06:12:55.526Z,98703.34
2023-02-19T06:15:24.522Z,98696.38
2023-02-19T06:17:53.334Z,98702.88
2023-02-19T06:20:22.708Z,98704.69
2023-02-19T06:22:52.066Z,98695.28
2023-02-19T06:25:21.530Z,98691.22
2023-02-19T06:27:51.739Z,98700.97
2023-02-19T06:30:25.726Z,98698.19
2023-02-19T06:32:55.214Z,98708.66
2023-02-19T06:35:24.201Z,98698.91
2023-02-19T06:37:53.656Z,98698.66
2023-02-19T06:40:22.341Z,98704.78
2023-02-19T06:42:52.667Z,98703.94
2023-02-19T06:45:21.906Z,98702.53
2023-02-19T06:47:53.300Z,98700.81
2023-02-19T06:50:22.022Z,98709.59
2023-02-19T06:52:50.751Z,98707.81
2023-02-19T06:55:19.539Z,98700.81
2023-02-19T06:57:48.182Z,98707.81
2023-02-19T07:00:19.389Z,98702.53
2023-02-19T07:02:56.676Z,98713.09
2023-02-19T07:05:25.705Z,98710.31
2023-02-19T07:07:54.378Z,98704.19
2023-02-19T07:10:23.074Z,98714.03
2023-02-19T07:12:51.999Z,98710.56
2023-02-19T07:15:22.188Z,98714.88
2023-02-19T07:17:50.984Z,98718.50
2023-02-19T07:20:19.869Z,98724.59
2023-02-19T07:22:48.602Z,98719.22
2023-02-19T07:25:17.604Z,98720.31
2023-02-19T07:27:46.281Z,98714.19
2023-02-19T07:30:15.391Z,98728.97
2023-02-19T07:32:46.053Z,98721.13
2023-02-19T07:35:14.704Z,98733.28
2023-02-19T07:37:43.606Z,98723.78
2023-02-19T07:40:12.658Z,98722.69
2023-02-19T07:42:41.717Z,98730.16
2023-02-19T07:45:10.614Z,98732.53
2023-02-19T07:47:39.300Z,98737.09
2023-02-19T07:50:14.039Z,98741.44
2023-02-19T07:52:43.874Z,98742.16
2023-02-19T07:55:12.495Z,98749.84
2023-02-19T07:57:41.743Z,98742.03
2023-02-19T08:00:11.599Z,98742.53
2023-02-19T08:03:02.796Z,98739.78
2023-02-19T08:05:39.389Z,98736.88
2023-02-19T08:08:09.457Z,98748.44
2023-02-19T08:10:55.422Z,98740.97
2023-02-19T08:13:25.695Z,98744.56
2023-02-19T08:16:15.961Z,98743.75
2023-02-19T08:18:48.057Z,98750.59
2023-02-19T08:21:21.100Z,98744.31
2023-02-19T08:23:51.244Z,98745.50
2023-02-19T08:26:20.220Z,98744.44
2023-02-19T08:28:50.157Z,98753.22
2023-02-19T08:31:18.720Z,98746.50
2023-02-19T08:33:47.392Z,98752.50
2023-02-19T08:36:15.817Z,98755.25
2023-02-19T08:38:45.853Z,98740.84
2023-02-19T08:41:15.807Z,98754.91
2023-02-19T08:43:44.961Z,98753.09
2023-02-19T08:46:13.852Z,98759.09
2023-02-19T08:48:42.770Z,98756.22
2023-02-19T08:51:12.950Z,98763.31
2023-02-19T08:53:42.812Z,98763.22
2023-02-19T08:56:14.889Z,98750.81
2023-02-19T08:58:44.216Z,98757.69
2023-02-19T09:01:14.571Z,98767.16
2023-02-19T09:03:44.492Z,98765.03
2023-02-19T09:06:16.421Z,98758.88
2023-02-19T09:08:45.117Z,98762.84
2023-02-19T09:11:15.773Z,98773.28
2023-02-19T09:13:45.099Z,98762.13
2023-02-19T09:16:14.330Z,98761.16
2023-02-19T09:18:42.894Z,98766.19
2023-02-19T09:21:11.715Z,98767.91
2023-02-19T09:23:40.462Z,98768.63
2023-02-19T09:26:10.421Z,98764.75
2023-02-19T09:28:42.331Z,98778.84
2023-02-19T09:31:13.445Z,98763.00
2023-02-19T09:33:44.901Z,98756.00
2023-02-19T09:36:13.581Z,98762.13
2023-02-19T09:38:42.238Z,98768.38
2023-02-19T09:41:16.758Z,98773.31
2023-02-19T09:43:47.355Z,98766.31
2023-02-19T09:46:26.758Z,98764.31
2023-02-19T09:49:00.393Z,98767.31
2023-02-19T09:51:30.437Z,98774.63
2023-02-19T09:53:59.637Z,98775.94
2023-02-19T09:56:29.331Z,98775.72
2023-02-19T09:59:01.651Z,98763.69
2023-02-19T10:01:34.966Z,98770.44
2023-02-19T10:04:04.109Z,98779.94
2023-02-19T10:06:36.505Z,98772.84
2023-02-19T10:09:20.439Z,98762.97
2023-02-19T10:11:51.078Z,98762.13
2023-02-19T10:14:30.290Z,98761.66
2023-02-19T10:17:00.893Z,98766.69
2023-02-19T10:19:29.792Z,98768.13
2023-02-19T10:21:58.943Z,98764.66
2023-02-19T10:24:30.646Z,98770.78
2023-02-19T10:26:59.631Z,98759.22
2023-02-19T10:29:29.836Z,98765.50
2023-02-19T10:32:17.444Z,98767.63
2023-02-19T10:34:49.339Z,98764.28
2023-02-19T10:37:20.125Z,98760.94
2023-02-19T10:39:51.141Z,98749.72
2023-02-19T10:42:22.491Z,98766.91
2023-02-19T10:44:58.748Z,98767.63
2023-02-19T10:47:30.039Z,98774.50
2023-02-19T10:50:03.317Z,98766.81
2023-02-19T10:52:38.177Z,98776.66
2023-02-19T10:55:18.688Z,98767.78
2023-02-19T10:57:47.559Z,98762.22
2023-02-19T11:00:27.020Z,98764.19
2023-02-19T11:03:15.674Z,98775.34
2023-02-19T11:05:57.032Z,98768.13
2023-02-19T11:08:26.189Z,98779.66
2023-02-19T11:10:54.953Z,98780.41
2023-02-19T11:13:31.367Z,98779.44
2023-02-19T11:16:01.974Z,98782.78
2023-02-19T11:18:45.383Z,98785.94
2023-02-19T11:21:28.846Z,98781.13
2023-02-19T11:23:58.665Z,98784.25
2023-02-19T11:26:32.327Z,98775.31
2023-02-19T11:29:02.724Z,98779.91
2023-02-19T11:31:36.291Z,98782.31
2023-02-19T11:34:31.108Z,98779.06
2023-02-19T11:37:15.169Z,98784.25
2023-02-19T11:39:46.711Z,98779.78
2023-02-19T11:42:44.304Z,98788.81
2023-02-19T11:45:29.973Z,98795.06
2023-02-19T11:48:24.333Z,98784.25
2023-02-19T11:51:14.361Z,98790.72
2023-02-19T11:53:49.947Z,98786.88
2023-02-19T11:56:26.688Z,98791.47
2023-02-19T11:59:06.533Z,98799.16
2023-02-19T12:02:16.642Z,98801.53
2023-02-19T12:05:31.179Z,98787.38
2023-02-19T12:08:31.170Z,98785.44
2023-02-19T12:11:14.669Z,98798.41
2023-02-19T12:14:03.386Z,98805.75
2023-02-19T12:16:43.849Z,98790.72
2023-02-19T12:19:45.087Z,98788.91
2023-02-19T12:22:28.152Z,98800.47
2023-02-19T12:25:35.483Z,98801.06
2023-02-19T12:28:29.247Z,98802.00
2023-02-19T12:31:15.218Z,98794.06
2023-02-19T12:34:05.242Z,98801.31
2023-02-19T12:36:42.179Z,98794.31
2023-02-19T12:39:23.765Z,98802.16
2023-02-19T12:42:02.704Z,98803.00
2023-02-19T12:44:42.421Z,98809.47
2023-02-19T12:47:17.739Z,98811.53
2023-02-19T12:49:52.318Z,98810.72
2023-02-19T12:52:26.078Z,98813.47
2023-02-19T12:55:00.645Z,98821.53
2023-02-19T12:57:34.219Z,98820.56
2023-02-19T13:00:09.331Z,98815.38
2023-02-19T13:02:45.902Z,98823.31
2023-02-19T13:05:26.103Z,98820.81
2023-02-19T13:08:01.915Z,98819.13
2023-02-19T13:10:39.437Z,98821.53
2023-02-19T13:13:13.990Z,98825.88
2023-02-19T13:15:46.581Z,98819.75
2023-02-19T13:18:20.487Z,98849.94
2023-02-19T13:20:51.939Z,98827.69
2023-02-19T13:23:43.984Z,98836.69
2023-02-19T13:26:50.630Z,98840.19
2023-02-19T13:29:31.244Z,98841.03
2023-02-19T13:32:18.562Z,98839.94
2023-02-19T13:34:59.867Z,98841.03
2023-02-19T13:37:28.745Z,98840.78
2023-02-19T13:39:58.641Z,98833.66
2023-02-19T13:42:32.738Z,98852.09
2023-02-19T13:45:03.248Z,98860.88
2023-02-19T13:47:50.187Z,98848.59
2023-02-19T13:50:22.786Z,98851.97
2023-02-19T13:52:52.052Z,98864.38
2023-02-19T13:55:56.065Z,98855.72
2023-02-19T13:58:58.050Z,98867.25
2023-02-19T14:02:14.786Z,98865.56
2023-02-19T14:04:47.829Z,98867.59
2023-02-19T14:07:45.125Z,98866.91
2023-02-19T14:10:35.811Z,98868.56
2023-02-19T14:13:04.486Z,98875.78
2023-02-19T14:15:46.364Z,98876.75
2023-02-19T14:18:46.829Z,98875.06
2023-02-19T14:21:25.854Z,98881.31
2023-02-19T14:23:57.363Z,98883.13
2023-02-19T14:26:27.681Z,98876.03
2023-02-19T14:28:56.505Z,98870.72
2023-02-19T14:31:31.772Z,98878.78
2023-02-19T14:34:03.851Z,98882.41
2023-02-19T14:36:45.684Z,98876.88
2023-02-19T14:39:18.164Z,98887.44
2023-02-19T14:41:50.100Z,98888.44
2023-02-19T14:44:25.096Z,98890.25
2023-02-19T14:47:00.411Z,98882.28
2023-02-19T14:49:35.026Z,98883.34
2023-02-19T14:52:07.929Z,98883.34
2023-02-19T14:54:43.633Z,98877.34
2023-02-19T14:57:18.022Z,98887.94
2023-02-19T15:00:01.195Z,98900.19
2023-02-19T15:02:33.981Z,98898.53
2023-02-19T15:05:02.737Z,98897.66
2023-02-19T15:07:35.089Z,98891.53
2023-02-19T15:10:06.284Z,98910.88
2023-02-19T15:12:44.939Z,98903.81
2023-02-19T15:15:20.142Z,98923.28
2023-02-19T15:17:51.844Z,98906.56
2023-02-19T15:20:24.599Z,98903.19
2023-02-19T15:22:54.400Z,98908.72
2023-02-19T15:25:25.506Z,98909.81
2023-02-19T15:27:54.299Z,98915.34
2023-02-19T15:30:25.498Z,98909.19
2023-02-19T15:32:58.191Z,98908.25
2023-02-19T15:35:29.362Z,98917.25
2023-02-19T15:37:57.895Z,98933.13
2023-02-19T15:40:30.582Z,98924.47
2023-02-19T15:43:01.795Z,98920.84
2023-02-19T15:45:32.878Z,98938.53
2023-02-19T15:48:08.813Z,98942.88
2023-02-19T15:50:44.286Z,98930.34
2023-02-19T15:53:17.642Z,98940.09
2023-02-19T15:55:56.188Z,98936.72
2023-02-19T15:58:32.778Z,98947.09
2023-02-19T16:01:06.420Z,98942.63
2023-02-19T16:03:37.500Z,98961.25
2023-02-19T16:06:10.836Z,98964.88
2023-02-19T16:08:41.119Z,98964.16
2023-02-19T16:11:28.959Z,98964.16
2023-02-19T16:14:20.256Z,98977.38
2023-02-19T16:16:52.023Z,98985.41
2023-02-19T16:19:28.552Z,98974.00
2023-02-19T16:21:58.662Z,98971.34
2023-02-19T16:24:32.058Z,98963.41
2023-02-19T16:27:02.293Z,98969.78
2023-02-19T16:29:35.077Z,98977.84
2023-02-19T16:32:06.568Z,98978.69
2023-02-19T16:34:50.709Z,98983.34
2023-02-19T16:37:40.840Z,98988.88
2023-02-19T16:41:03.276Z,98999.22
2023-02-19T16:43:50.655Z,99008.97
2023-02-19T16:46:27.730Z,98994.16
2023-02-19T16:48:56.458Z,98999.22
2023-02-19T16:51:28.881Z,98996.47
2023-02-19T16:54:01.807Z,99004.31
2023-02-19T16:56:31.462Z,99009.59
2023-02-19T16:59:01.040Z,99009.59
2023-02-19T17:01:30.458Z,99014.00
2023-02-19T17:04:04.528Z,99008.72
2023-02-19T17:06:35.071Z,99022.69
2023-02-19T17:09:04.345Z,99001.25
2023-02-19T17:11:36.109Z,99023.75
2023-02-19T17:14:05.125Z,99017.53
2023-02-19T17:16:40.082Z,99022.09
2023-02-19T17:19:13.790Z,99008.03
2023-02-19T17:21:44.561Z,99023.16
2023-02-19T17:24:13.775Z,99029.28
2023-02-19T17:26:42.772Z,99030.13
2023-02-19T17:29:16.092Z,99039.88
2023-02-19T17:31:45.197Z,99045.88
2023-02-19T17:34:13.844Z,99046.81
2023-02-19T17:36:45.868Z,99055.72
2023-02-19T17:39:16.547Z,99055.47
2023-02-19T17:41:48.321Z,99069.41
2023-02-19T17:44:17.465Z,99070.94
2023-02-19T17:46:48.958Z,99083.63
2023-02-19T17:49:17.733Z,99075.94
2023-02-19T17:51:48.347Z,99078.25
2023-02-19T17:54:25.191Z,99085.06
2023-02-19T17:56:54.036Z,99091.81
2023-02-19T17:59:23.076Z,99082.97
2023-02-19T18:01:51.871Z,99094.63
2023-02-19T18:04:27.148Z,99089.66
2023-02-19T18:07:00.434Z,99089.53
2023-02-19T18:09:29.350Z,99092.84
2023-02-19T18:12:00.913Z,99103.09
2023-02-19T18:14:32.648Z,99110.06
2023-02-19T18:17:02.616Z,99119.03
2023-02-19T18:19:34.174Z,99118.22
2023-02-19T18:22:06.521Z,99114.69
2023-02-19T18:24:38.371Z,99111.53
2023-02-19T18:27:07.284Z,99129.31
2023-02-19T18:29:35.913Z,99128.56
2023-02-19T18:32:04.668Z,99128.66
2023-02-19T18:34:33.245Z,99126.16
2023-02-19T18:37:01.889Z,99145.47
2023-02-19T18:39:32.033Z,99137.75
2023-02-19T18:42:01.278Z,99142.19
2023-02-19T18:44:29.779Z,99140.28
2023-02-19T18:46:58.440Z,99152.13
2023-02-19T18:49:26.949Z,99157.00
2023-02-19T18:51:55.441Z,99141.13
2023-02-19T18:54:25.185Z,99144.75
2023-02-19T18:56:55.311Z,99148.84
2023-02-19T18:59:24.345Z,99153.59
2023-02-19T19:01:53.129Z,99153.59
2023-02-19T19:04:21.677Z,99147.69
2023-02-19T19:06:50.294Z,99158.69
2023-02-19T19:09:18.920Z,99162.28
2023-02-19T19:11:47.891Z,99167.34
2023-02-19T19:14:18.030Z,99169.97
2023-02-19T19:16:46.636Z,99166.50
2023-02-19T19:19:16.015Z,99176.00
2023-02-19T19:21:44.637Z,99176.00
2023-02-19T19:24:13.890Z,99175.78
2023-02-19T19:26:46.090Z,99172.44
2023-02-19T19:29:16.360Z,99170.50
2023-02-19T19:31:47.166Z,99170.72
2023-02-19T19:34:16.272Z,99184.91
2023-02-19T19:36:45.293Z,99175.06
2023-02-19T19:39:14.292Z,99178.56
2023-02-19T19:41:42.867Z,99183.94
2023-02-19T19:44:11.632Z,99189.22
2023-02-19T19:46:46.721Z,99181.94
2023-02-19T19:49:19.119Z,99183.94
2023-02-19T19:51:47.873Z,99194.28
2023-02-19T19:54:16.973Z,99203.91
2023-02-19T19:56:47.456Z,99207.63
2023-02-19T19:59:17.606Z,99204.13
2023-02-19T20:01:51.552Z,99220.00
2023-02-19T20:04:21.461Z,99224.63
2023-02-19T20:06:50.329Z,99221.97
2023-02-19T20:09:19.739Z,99216.81
2023-02-19T20:11:49.909Z,99221.22
2023-02-19T20:14:19.606Z,99229.28
2023-02-19T20:16:48.628Z,99235.41
2023-02-19T20:19:20.766Z,99235.91
2023-02-19T20:21:50.379Z,99237.59
2023-02-19T20:24:21.011Z,99239.31
2023-02-19T20:26:49.763Z,99245.94
2023-02-19T20:29:18.484Z,99243.09
2023-02-19T20:31:51.186Z,99239.25
2023-02-19T20:34:21.628Z,99238.19
2023-02-19T20:36:50.809Z,99242.00
2023-02-19T20:39:21.561Z,99240.31
2023-02-19T20:41:52.291Z,99242.41
2023-02-19T20:44:21.744Z,99246.09
2023-02-19T20:46:52.583Z,99250.31
2023-02-19T20:49:25.004Z,99253.50
2023-02-19T20:51:55.354Z,99260.25
2023-02-19T20:54:25.749Z,99262.06
2023-02-19T20:56:57.612Z,99263.41
2023-02-19T20:59:30.698Z,99267.94
2023-02-19T21:01:59.973Z,99267.19
2023-02-19T21:04:29.972Z,99273.59
2023-02-19T21:06:58.580Z,99277.94
2023-02-19T21:09:27.096Z,99280.28
2023-02-19T21:11:55.522Z,99288.28
2023-02-19T21:14:23.982Z,99292.66
2023-02-19T21:16:52.402Z,99298.66
2023-02-19T21:19:20.985Z,99300.75
2023-02-19T21:21:50.948Z,99300.94
2023-02-19T21:24:19.453Z,99310.75
2023-02-19T21:26:47.939Z,99315.19
2023-02-19T21:29:19.171Z,99313.38
2023-02-19T21:31:49.577Z,99323.84
2023-02-19T21:34:20.012Z,99316.41
2023-02-19T21:36:48.843Z,99325.44
2023-02-19T21:39:20.788Z,99324.78
2023-02-19T21:41:49.693Z,99331.97
2023-02-19T21:44:18.298Z,99335.66
2023-02-19T21:46:46.775Z,99338.19
2023-02-19T21:49:15.540Z,99339.56
2023-02-19T21:51:45.894Z,99345.81
2023-02-19T21:54:16.745Z,99346.78
2023-02-19T21:56:47.036Z,99351.19
2023-02-19T21:59:16.004Z,99353.38
2023-02-19T22:01:44.986Z,99348.31
2023-02-19T22:04:15.801Z,99351.03
2023-02-19T22:06:44.639Z,99354.31
2023-02-19T22:09:14.436Z,99360.81
2023-02-19T22:11:42.930Z,99357.16
2023-02-19T22:14:12.988Z,99360.00
2023-02-19T22:16:41.633Z,99372.44
2023-02-19T22:19:12.269Z,99379.78
2023-02-19T22:21:44.506Z,99385.06
2023-02-19T22:24:18.165Z,99384.78
2023-02-19T22:26:47.175Z,99388.66
2023-02-19T22:29:17.780Z,99393.53
2023-02-19T22:31:46.537Z,99386.00
2023-02-19T22:34:15.790Z,99397.28
2023-02-19T22:36:44.982Z,99401.72
2023-02-19T22:39:20.057Z,99403.06
2023-02-19T22:41:49.007Z,99405.41
2023-02-19T22:44:19.360Z,99408.06
2023-02-19T22:46:49.945Z,99409.66
2023-02-19T22:49:19.129Z,99413.13
2023-02-19T22:51:54.924Z,99418.53
2023-02-19T22:54:27.058Z,99415.69
2023-02-19T22:56:56.329Z,99418.59
2023-02-19T22:59:26.298Z,99414.56
2023-02-19T23:01:55.021Z,99417.75
2023-02-19T23:04:25.452Z,99412.56
2023-02-19T23:06:54.352Z,99418.59
2023-02-19T23:09:25.813Z,99433.09
2023-02-19T23:11:55.227Z,99434.81
2023-02-19T23:14:24.502Z,99438.59
2023-02-19T23:16:54.562Z,99431.22
2023-02-19T23:19:24.751Z,99442.34
2023-02-19T23:21:53.784Z,99442.91
2023-02-19T23:24:22.465Z,99444.78
2023-02-19T23:26:53.106Z,99458.75
2023-02-19T23:29:25.247Z,99459.03
2023-02-19T23:31:55.943Z,99458.19
2023-02-19T23:34:25.292Z,99461.84
2023-02-19T23:36:53.994Z,99459.78
2023-02-19T23:39:23.599Z,99463.66
2023-02-19T23:41:54.074Z,99469.00
2023-02-19T23:44:23.613Z,99470.88
2023-02-19T23:46:53.500Z,99474.47
2023-02-19T23:49:23.612Z,99481.06
2023-02-19T23:51:52.150Z,99486.91
2023-02-19T23:54:20.617Z,99496.44
2023-02-19T23:56:49.239Z,99498.41
2023-02-19T23:59:17.818Z,99497.28
